Bradford Regional Airport
KBFD : rendu visible

Aérodrome :











RETROUVEZ-NOUS SUR...

 
LOGIN :

S'inscrire | Disclaimer

   EN    FR    IT 

 









Légende :    VFR   VFR Marginal   IFR   IFR Intensif   IFR Très Intensif
Visi : 
Plafond : 
>= 8 km
>= 3000ft
5 à 8 km
1000 à 3000 ft
1500m à 5 km
500 à 1000 ft
800 à 1500m
200 à 500 ft
< 800m
< 200 ft
Symboles :   Orages  Brouillard  Fortes neiges  Fortes précipitations  Vent > 20 kt






- Altitude de l'aérodrome : 2143 ft
- Code IATA : BFD


KBFD - Bradford Regional

DERNIER METAR :
  • 240053Z AUTO 10SM FEW018 OVC046 02/M03 A3018 RMK AO2 SLP237 T00221028 $

METARs EXPIRÉS :
  • 240037Z AUTO 29010KT 10SM FEW019 FEW025 OVC046 02/M03 A3017 RMK AO2 T00221028
  • 240006Z AUTO 30007KT 10SM BKN018 BKN027 OVC042 02/M03 A3017 RMK AO2 T00221028
  • 232353Z AUTO 28006KT 10SM FEW021 FEW027 OVC044 02/M02 A3016 RMK AO2 SLP230 60001 T00221022 10022 20017 51016
  • 232306Z AUTO 30009G17KT 10SM FEW020 SCT024 OVC043 02/M02 A3016 RMK AO2 T00221022
  • 232253Z AUTO 30010KT 10SM SCT015 BKN022 OVC047 02/M02 A3015 RMK AO2 UPE2155B13E19SNB12E13B19E35 SLP227 P0000 T00221022

TAF KBFD
Valide du 24 à 00h jusqu'au 25 à 00h UTC


232320Z 2400/2424 30008G14KT P6SM VCSH SCT015 OVC035
FM240400 30006KT P6SM OVC015
FM241000 31005KT P6SM BKN020
FM241600 33004KT P6SM FEW020 SCT150
FIR KZOB / Amérique du Nord



MET'MAP, la Météo Aéronautique d'un coup d'oeil ! - Copyright ORBIFLY Décembre 2007 - Disclaimer

ORBIFLY MET'MAP TEAM :

Programmation & Développement : Alexandra Zaïnal
Sur une idée originale de : Baudouin d'Aumeries
Assistance à la programmation : Marc-Olivier Méhu
Soutien technique & logistique : Manuel Goepfert

Contact : metmap@orbifly.com




SOURCES & CREDITS :

   NOAA       Earth
Advisory